Time;durP1;ratioP1;P1;durP2;ratioP2;P2;SDS_P1;SDS_P2;PMS_P1;PMS_P2;Temp;Humidity;BMP_temperature;BMP_pressure;BME280_temperature;BME280_humidity;BME280_pressure;Samples;Min_cycle;Max_cycle;Signal;HPM_P1;HPM_P2
2023/02/01 00:02:05;;;;;;;63.10;7.70;;;5.30;99.90;;;;;;5052849;28;20033;-69
2023/02/01 00:04:31;;;;;;;73.38;10.00;;;5.30;99.90;;;;;;5052878;28;20453;-69
2023/02/01 00:06:56;;;;;;;59.00;6.75;;;5.30;99.90;;;;;;5045658;28;20480;-69
2023/02/01 00:09:22;;;;;;;57.67;9.38;;;5.20;99.90;;;;;;5046052;28;20100;-69
2023/02/01 00:11:47;;;;;;;52.85;8.75;;;5.20;99.90;;;;;;5045508;28;20424;-69
2023/02/01 00:14:13;;;;;;;53.92;8.77;;;5.20;99.90;;;;;;5032742;28;20477;-69
2023/02/01 00:16:39;;;;;;;47.42;7.88;;;5.20;99.90;;;;;;5033535;28;20491;-69
2023/02/01 00:19:11;;;;;;;53.55;7.50;;;5.20;99.90;;;;;;5033119;28;20065;-69
2023/02/01 00:21:37;;;;;;;61.50;8.13;;;5.20;99.90;;;;;;5038299;28;20025;-69
2023/02/01 00:24:03;;;;;;;93.15;9.82;;;5.20;99.90;;;;;;5052742;28;20082;-69
2023/02/01 00:26:34;;;;;;;75.55;9.02;;;5.20;99.90;;;;;;5052948;28;20021;-69
2023/02/01 00:29:01;;;;;;;64.43;7.60;;;5.20;99.90;;;;;;5052740;28;20398;-69
2023/02/01 00:31:27;;;;;;;67.18;10.77;;;5.30;99.90;;;;;;5053033;28;20381;-69
2023/02/01 00:33:53;;;;;;;84.38;10.15;;;5.30;99.90;;;;;;5052689;28;20033;-69
2023/02/01 00:36:18;;;;;;;86.88;10.20;;;5.40;99.90;;;;;;5052660;28;20051;-69
2023/02/01 00:38:44;;;;;;;74.88;9.18;;;5.40;99.90;;;;;;5052765;28;20387;-69
2023/02/01 00:41:19;;;;;;;81.88;10.93;;;5.30;99.90;;;;;;5052398;28;20059;-69
2023/02/01 00:43:45;;;;;;;104.70;12.93;;;5.40;99.90;;;;;;5052669;28;20025;-69
2023/02/01 00:46:12;;;;;;;82.78;11.02;;;5.50;99.90;;;;;;5053057;28;20040;-69
2023/02/01 00:48:39;;;;;;;82.00;11.20;;;5.50;99.90;;;;;;5052581;28;20051;-70
2023/02/01 00:51:12;;;;;;;68.30;9.63;;;5.50;99.90;;;;;;5052342;28;20035;-69
2023/02/01 00:53:38;;;;;;;77.95;10.73;;;5.50;99.90;;;;;;5052512;28;20021;-69
2023/02/01 00:56:05;;;;;;;89.18;12.10;;;5.60;99.90;;;;;;5052605;28;20033;-69
2023/02/01 00:58:31;;;;;;;67.28;10.68;;;5.60;99.90;;;;;;5052751;28;20025;-69
2023/02/01 01:01:10;;;;;;;69.90;9.00;;;5.50;99.90;;;;;;5052475;28;20111;-69
2023/02/01 01:03:41;;;;;;;121.68;22.95;;;5.60;99.90;;;;;;5054260;28;20021;-69
2023/02/01 01:06:10;;;;;;;82.72;14.80;;;5.50;99.90;;;;;;5055992;28;20040;-69
2023/02/01 01:08:36;;;;;;;75.22;12.80;;;5.40;99.90;;;;;;5037075;28;20025;-69
2023/02/01 01:11:11;;;;;;;97.10;13.13;;;5.50;99.90;;;;;;5036070;28;20018;-69
2023/02/01 01:13:37;;;;;;;71.28;9.80;;;5.40;99.90;;;;;;5035976;28;20104;-69
2023/02/01 01:16:04;;;;;;;76.75;10.38;;;5.50;99.90;;;;;;5042040;28;20076;-69
2023/02/01 01:18:32;;;;;;;80.03;10.07;;;5.50;99.90;;;;;;5055776;28;20154;-69
2023/02/01 01:20:59;;;;;;;76.72;11.00;;;5.50;99.90;;;;;;5055710;28;20028;-69
2023/02/01 01:23:24;;;;;;;95.28;10.02;;;5.50;99.90;;;;;;5055256;28;20115;-69
2023/02/01 01:25:50;;;;;;;74.25;9.55;;;5.40;99.90;;;;;;5055697;28;20196;-69
2023/02/01 01:28:15;;;;;;;68.63;10.57;;;5.50;99.90;;;;;;5070801;28;20017;-69
2023/02/01 01:30:41;;;;;;;66.85;10.15;;;5.50;99.90;;;;;;5055500;28;20017;-69
2023/02/01 01:33:06;;;;;;;85.28;10.75;;;5.50;99.90;;;;;;5055272;28;20025;-70
2023/02/01 01:35:33;;;;;;;92.32;10.30;;;5.50;99.90;;;;;;5055398;28;20112;-69
2023/02/01 01:37:59;;;;;;;78.57;9.70;;;5.50;99.90;;;;;;5055640;28;20055;-69
2023/02/01 01:40:26;;;;;;;78.82;10.43;;;5.50;99.90;;;;;;5055878;28;20086;-69
2023/02/01 01:42:54;;;;;;;73.05;10.52;;;5.50;99.90;;;;;;5055382;28;20052;-70
2023/02/01 01:45:31;;;;;;;75.47;9.23;;;5.50;99.90;;;;;;5055046;28;20531;-69
2023/02/01 01:48:07;;;;;;;61.55;9.23;;;5.50;99.90;;;;;;5055067;28;20083;-69
2023/02/01 01:50:48;;;;;;;64.90;9.48;;;5.50;99.90;;;;;;5055319;28;20120;-69
2023/02/01 01:53:20;;;;;;;97.05;9.50;;;5.50;99.90;;;;;;5055032;28;20504;-69
2023/02/01 01:55:49;;;;;;;54.28;9.70;;;5.50;99.90;;;;;;5055570;28;20551;-69
2023/02/01 01:58:20;;;;;;;64.22;9.65;;;5.50;99.90;;;;;;5054816;28;20029;-70
2023/02/01 02:00:47;;;;;;;88.95;9.80;;;5.50;99.90;;;;;;5055177;28;20112;-69
2023/02/01 02:03:20;;;;;;;88.47;10.43;;;5.60;99.90;;;;;;5054992;28;20467;-70
2023/02/01 02:05:49;;;;;;;87.63;10.65;;;5.50;99.90;;;;;;5054888;28;20021;-70
2023/02/01 02:08:15;;;;;;;68.40;9.52;;;5.50;99.90;;;;;;5055036;28;20025;-70
2023/02/01 02:13:46;;;;;;;64.88;9.57;;;5.50;99.90;;;;;;5054853;28;20032;-70
2023/02/01 02:16:28;;;;;;;77.32;9.65;;;5.50;99.90;;;;;;5052657;28;20040;-70
2023/02/01 02:19:28;;;;;;;97.82;12.60;;;5.60;99.90;;;;;;5034951;28;20116;-70
2023/02/01 02:22:12;;;;;;;67.97;10.20;;;5.60;99.90;;;;;;5034607;28;20113;-70
2023/02/01 02:24:56;;;;;;;78.38;11.10;;;5.70;99.90;;;;;;5034458;28;20113;-70
2023/02/01 02:27:40;;;;;;;77.70;11.00;;;5.60;99.90;;;;;;5034437;28;20028;-70
2023/02/01 02:30:46;;;;;;;88.43;11.55;;;5.70;99.90;;;;;;5034716;28;20049;-70
2023/02/01 02:33:27;;;;;;;73.65;12.05;;;5.60;99.90;;;;;;5034500;28;20025;-70
2023/02/01 02:36:32;;;;;;;85.05;11.82;;;5.60;99.90;;;;;;5035405;28;20112;-70
2023/02/01 02:38:58;;;;;;;90.38;11.05;;;5.60;99.90;;;;;;5036780;28;20017;-69
2023/02/01 02:47:42;;;;;;;91.15;12.10;;;5.50;99.90;;;;;;5053999;28;20031;-69
2023/02/01 03:04:19;;;;;;;79.45;12.40;;;5.60;99.90;;;;;;5054178;28;20128;-69
2023/02/01 03:06:45;;;;;;;71.38;9.95;;;5.60;99.90;;;;;;5053950;28;20100;-70
2023/02/01 03:09:27;;;;;;;67.18;9.02;;;5.50;99.90;;;;;;5054470;28;20052;-69
2023/02/01 03:14:46;;;;;;;66.95;10.68;;;5.50;99.90;;;;;;5054305;28;20075;-69
2023/02/01 03:17:19;;;;;;;73.65;9.63;;;5.60;99.90;;;;;;5039041;28;20108;-69
2023/02/01 03:19:50;;;;;;;84.63;11.23;;;5.60;99.90;;;;;;5033988;28;20493;-69
2023/02/01 03:22:21;;;;;;;67.68;8.88;;;5.60;99.90;;;;;;5032600;28;20541;-70
2023/02/01 03:25:14;;;;;;;74.03;11.18;;;5.60;99.90;;;;;;5033633;28;20057;-70
2023/02/01 03:27:48;;;;;;;69.47;11.90;;;5.50;99.90;;;;;;5029352;28;20061;-69
2023/02/01 03:30:17;;;;;;;77.55;8.82;;;5.50;99.90;;;;;;5033711;28;20032;-69
2023/02/01 03:33:01;;;;;;;59.35;8.27;;;5.50;99.90;;;;;;5033902;28;20025;-69
2023/02/01 03:35:36;;;;;;;;;;;5.50;99.90;;;;;;5034611;28;20091;-69
2023/02/01 03:38:31;;;;;;;67.07;8.88;;;5.50;99.90;;;;;;5033833;28;19911;-69
2023/02/01 03:41:31;;;;;;;79.15;9.70;;;5.50;99.90;;;;;;5011803;28;20068;-69
2023/02/01 03:44:06;;;;;;;54.05;8.30;;;5.50;99.90;;;;;;5033674;28;20076;-69
2023/02/01 03:46:43;;;;;;;70.82;9.57;;;5.50;99.90;;;;;;5033760;28;20103;-69
2023/02/01 03:49:12;;;;;;;62.83;10.57;;;5.40;99.90;;;;;;5050639;28;20032;-70
2023/02/01 03:51:40;;;;;;;69.70;9.20;;;5.40;99.90;;;;;;5053624;28;20021;-70
2023/02/01 03:54:09;;;;;;;72.68;8.40;;;5.40;99.90;;;;;;5053766;28;20070;-70
2023/02/01 03:56:37;;;;;;;65.57;8.15;;;5.40;99.90;;;;;;5053198;28;20017;-70
2023/02/01 03:59:03;;;;;;;68.18;7.88;;;5.40;99.90;;;;;;5049736;28;20032;-70
2023/02/01 04:01:30;;;;;;;74.88;9.88;;;5.50;99.90;;;;;;5045144;28;20029;-70
2023/02/01 04:03:57;;;;;;;66.43;8.55;;;5.60;99.90;;;;;;5033842;28;20353;-70
2023/02/01 04:06:24;;;;;;;81.18;11.00;;;5.50;99.90;;;;;;5040163;28;20392;-70
2023/02/01 04:08:50;;;;;;;60.90;9.07;;;5.50;99.90;;;;;;5052666;28;20025;-69
2023/02/01 04:11:16;;;;;;;75.85;9.50;;;5.60;99.90;;;;;;5052927;28;20025;-70
2023/02/01 04:13:41;;;;;;;64.38;9.45;;;5.60;99.90;;;;;;5052987;28;20020;-70
2023/02/01 04:16:07;;;;;;;72.00;9.07;;;5.60;99.90;;;;;;5053235;28;20495;-70
2023/02/01 04:18:33;;;;;;;81.35;9.65;;;5.60;99.90;;;;;;5053003;28;20029;-70
2023/02/01 04:20:58;;;;;;;63.70;8.10;;;5.60;99.90;;;;;;5053040;28;20025;-70
2023/02/01 04:23:24;;;;;;;55.15;7.28;;;5.60;99.90;;;;;;5048739;28;20444;-70
2023/02/01 04:25:49;;;;;;;47.58;6.57;;;5.50;99.90;;;;;;5036453;28;20088;-70
2023/02/01 04:28:15;;;;;;;56.58;6.85;;;5.50;99.90;;;;;;5053464;28;20100;-70
2023/02/01 04:30:40;;;;;;;47.35;7.28;;;5.40;99.90;;;;;;5042161;28;20026;-70
2023/02/01 04:33:06;;;;;;;60.83;9.07;;;5.40;99.90;;;;;;5049523;28;20021;-70
2023/02/01 04:35:31;;;;;;;47.70;6.60;;;5.30;99.90;;;;;;5052812;28;20398;-70
2023/02/01 04:37:57;;;;;;;49.38;6.10;;;5.30;99.90;;;;;;5053602;28;20116;-70
2023/02/01 04:40:22;;;;;;;46.15;6.57;;;5.30;99.90;;;;;;5056576;28;20036;-70
2023/02/01 04:42:48;;;;;;;36.97;6.47;;;5.30;99.90;;;;;;5056476;28;20032;-69
2023/02/01 04:45:13;;;;;;;47.53;6.00;;;5.30;99.90;;;;;;5056410;28;20025;-69
2023/02/01 04:47:39;;;;;;;58.67;6.95;;;5.20;99.90;;;;;;5056822;28;20441;-69
2023/02/01 04:50:05;;;;;;;39.33;6.07;;;5.20;99.90;;;;;;5056369;28;20032;-70
2023/02/01 04:52:31;;;;;;;58.25;6.43;;;5.20;99.90;;;;;;5056213;28;20108;-70
2023/02/01 04:54:59;;;;;;;52.60;6.03;;;5.20;99.90;;;;;;5056088;28;20118;-70
2023/02/01 04:57:25;;;;;;;51.05;6.32;;;5.20;99.90;;;;;;5056206;28;20538;-70
2023/02/01 04:59:50;;;;;;;51.88;7.07;;;5.20;99.90;;;;;;5056179;28;20033;-70
2023/02/01 05:02:16;;;;;;;38.13;6.10;;;5.20;99.90;;;;;;5056326;28;20068;-70
2023/02/01 05:04:41;;;;;;;47.42;7.60;;;5.20;99.90;;;;;;5056297;28;20036;-70
2023/02/01 05:07:07;;;;;;;46.83;6.18;;;5.20;99.90;;;;;;5056914;28;20029;-70
2023/02/01 05:09:32;;;;;;;40.25;6.38;;;5.20;99.90;;;;;;5056512;28;20025;-70
2023/02/01 05:14:42;;;;;;;;;;;5.20;99.90;;;;;;5047764;28;20501;-70
2023/02/01 05:17:07;;;;;;;49.08;6.60;;;5.10;99.90;;;;;;5055943;28;19904;-70
2023/02/01 05:19:33;;;;;;;49.10;6.40;;;5.10;99.90;;;;;;5055342;28;20025;-70
2023/02/01 05:21:58;;;;;;;55.17;10.25;;;5.10;99.90;;;;;;5055406;28;20096;-70
2023/02/01 05:24:24;;;;;;;51.10;6.63;;;5.10;99.90;;;;;;5055612;28;20533;-70
2023/02/01 05:26:50;;;;;;;53.17;10.48;;;5.10;99.90;;;;;;5070999;28;20441;-70
2023/02/01 05:29:17;;;;;;;50.80;6.70;;;5.20;99.90;;;;;;5055851;28;20467;-70
2023/02/01 05:31:45;;;;;;;46.47;7.55;;;5.30;99.90;;;;;;5055309;28;20451;-70
2023/02/01 05:34:11;;;;;;;61.20;8.25;;;5.30;99.90;;;;;;5044951;28;20475;-70
2023/02/01 05:36:37;;;;;;;66.07;10.77;;;5.30;99.90;;;;;;5055229;28;20028;-70
2023/02/01 05:39:02;;;;;;;75.45;9.90;;;5.30;99.90;;;;;;5055532;28;20112;-70
2023/02/01 05:41:28;;;;;;;67.80;7.25;;;5.40;99.90;;;;;;5055568;28;20019;-70
2023/02/01 05:43:54;;;;;;;54.45;7.63;;;5.30;99.90;;;;;;5048272;28;20036;-70
2023/02/01 05:46:19;;;;;;;63.50;8.50;;;5.30;99.90;;;;;;5035456;28;20040;-70
2023/02/01 05:48:45;;;;;;;87.57;10.05;;;5.40;99.90;;;;;;5035060;28;20036;-70
2023/02/01 05:51:11;;;;;;;70.18;9.25;;;5.30;99.90;;;;;;5050454;28;20494;-70
2023/02/01 05:53:36;;;;;;;57.55;8.23;;;5.30;99.90;;;;;;5055137;28;20464;-70
2023/02/01 05:56:02;;;;;;;57.15;8.15;;;5.30;99.90;;;;;;5055004;28;20028;-70
2023/02/01 05:58:29;;;;;;;72.03;8.65;;;5.40;99.90;;;;;;5055130;28;20497;-70
2023/02/01 06:00:54;;;;;;;53.47;8.55;;;5.50;99.90;;;;;;5055166;28;20537;-70
2023/02/01 06:03:20;;;;;;;74.22;8.27;;;5.50;99.90;;;;;;5054780;28;20037;-70
2023/02/01 06:05:47;;;;;;;70.65;8.73;;;5.50;99.90;;;;;;5054922;28;20026;-70
2023/02/01 06:08:13;;;;;;;66.32;7.75;;;5.50;99.90;;;;;;5054942;28;20040;-70
2023/02/01 06:10:39;;;;;;;62.33;7.95;;;5.60;99.90;;;;;;5055342;28;20057;-70
2023/02/01 06:13:05;;;;;;;66.75;8.75;;;5.60;99.90;;;;;;5054555;28;20075;-70
2023/02/01 06:15:32;;;;;;;61.38;8.30;;;5.60;99.90;;;;;;5054866;28;20029;-70
2023/02/01 06:17:57;;;;;;;88.97;8.75;;;5.70;99.90;;;;;;5046689;28;20112;-70
2023/02/01 06:20:23;;;;;;;56.55;8.43;;;5.70;99.90;;;;;;5033503;28;20068;-70
2023/02/01 06:22:49;;;;;;;68.70;8.43;;;5.70;99.90;;;;;;5041796;28;20079;-70
2023/02/01 06:25:16;;;;;;;75.57;11.35;;;5.60;99.90;;;;;;5054469;28;20029;-70
2023/02/01 06:27:44;;;;;;;70.38;12.77;;;5.60;99.90;;;;;;5054238;28;20104;-70
2023/02/01 06:30:13;;;;;;;53.42;9.05;;;5.60;99.90;;;;;;5054997;28;20025;-69
2023/02/01 06:32:40;;;;;;;63.50;7.85;;;5.60;99.90;;;;;;5054415;28;20013;-70
2023/02/01 06:35:15;;;;;;;81.53;11.30;;;5.60;99.90;;;;;;5067877;28;20091;-70
2023/02/01 06:37:42;;;;;;;74.72;8.20;;;5.50;99.90;;;;;;5057115;28;20029;-70
2023/02/01 06:40:08;;;;;;;75.93;11.27;;;5.50;99.90;;;;;;5054526;28;20036;-70
2023/02/01 06:42:34;;;;;;;67.75;8.02;;;5.50;99.90;;;;;;5054335;28;20021;-70
2023/02/01 06:44:59;;;;;;;66.82;8.40;;;5.40;99.90;;;;;;5053806;28;20120;-70
2023/02/01 06:47:25;;;;;;;64.65;8.90;;;5.30;99.90;;;;;;5053863;28;20096;-70
2023/02/01 06:49:50;;;;;;;61.67;10.18;;;5.30;99.90;;;;;;5054164;28;20079;-70
2023/02/01 06:52:16;;;;;;;68.22;9.82;;;5.30;99.90;;;;;;5044913;28;20026;-70
2023/02/01 06:54:41;;;;;;;55.00;8.13;;;5.20;99.90;;;;;;5050415;28;20025;-70
2023/02/01 06:57:07;;;;;;;66.97;9.65;;;5.20;99.90;;;;;;5053753;28;20433;-70
2023/02/01 06:59:32;;;;;;;63.08;10.43;;;5.20;99.90;;;;;;5053702;28;20029;-70
2023/02/01 07:01:58;;;;;;;59.08;8.20;;;5.30;99.90;;;;;;5053365;28;20029;-70
2023/02/01 07:04:23;;;;;;;69.18;11.30;;;5.20;99.90;;;;;;5053895;28;20021;-70
2023/02/01 07:06:49;;;;;;;64.00;8.20;;;5.20;99.90;;;;;;5053813;28;20032;-70
2023/02/01 07:09:14;;;;;;;74.18;8.48;;;5.30;99.90;;;;;;5053370;28;20020;-70
2023/02/01 07:11:43;;;;;;;44.20;7.65;;;5.40;99.90;;;;;;5053685;28;20025;-70
2023/02/01 07:14:12;;;;;;;56.63;7.53;;;5.40;99.90;;;;;;5053485;28;20509;-70
2023/02/01 07:16:38;;;;;;;44.20;6.85;;;5.50;99.90;;;;;;5053877;28;20025;-70
2023/02/01 07:19:04;;;;;;;48.33;7.30;;;5.50;99.90;;;;;;5069215;28;20163;-70
2023/02/01 07:21:29;;;;;;;58.70;8.60;;;5.50;99.90;;;;;;5053636;28;20055;-70
2023/02/01 07:23:55;;;;;;;50.53;7.35;;;5.50;99.90;;;;;;5053072;28;20582;-70
2023/02/01 07:26:21;;;;;;;48.40;6.93;;;5.40;99.90;;;;;;5053167;28;20032;-70
2023/02/01 07:28:47;;;;;;;43.25;8.80;;;5.40;99.90;;;;;;5053513;28;20045;-70
2023/02/01 07:31:20;;;;;;;56.13;8.43;;;5.40;99.90;;;;;;5053902;28;20029;-70
2023/02/01 07:33:46;;;;;;;58.67;9.88;;;5.30;99.90;;;;;;5053992;28;20022;-70
2023/02/01 07:36:14;;;;;;;70.20;8.90;;;5.40;99.90;;;;;;5052073;28;20080;-70
2023/02/01 07:38:39;;;;;;;62.40;8.90;;;5.40;99.90;;;;;;5053119;28;20025;-72
2023/02/01 07:41:07;;;;;;;68.63;9.15;;;5.40;99.90;;;;;;5053390;28;20483;-73
2023/02/01 07:43:34;;;;;;;60.35;6.50;;;5.30;99.90;;;;;;5040519;28;20071;-73
2023/02/01 07:46:00;;;;;;;58.50;8.45;;;5.30;99.90;;;;;;5033294;28;20463;-73
2023/02/01 07:48:27;;;;;;;52.10;8.10;;;5.40;99.90;;;;;;5033550;28;20101;-73
2023/02/01 07:51:08;;;;;;;69.00;9.40;;;5.40;99.90;;;;;;5045047;28;20021;-73
2023/02/01 07:53:34;;;;;;;54.53;8.32;;;5.40;99.90;;;;;;5053125;28;20032;-73
2023/02/01 07:56:00;;;;;;;56.72;7.78;;;5.40;99.90;;;;;;5052881;28;20041;-72
2023/02/01 07:58:27;;;;;;;83.90;10.65;;;5.40;99.90;;;;;;5052834;28;20041;-73
2023/02/01 08:03:37;;;;;;;61.33;9.50;;;5.70;99.90;;;;;;5052608;28;20040;-72
2023/02/01 08:06:03;;;;;;;66.97;7.97;;;5.70;99.90;;;;;;5052999;28;20029;-73
2023/02/01 08:08:29;;;;;;;53.92;8.75;;;5.60;99.90;;;;;;5053087;28;20022;-73
2023/02/01 08:11:02;;;;;;;64.97;7.88;;;5.60;99.90;;;;;;5053051;28;20029;-72
2023/02/01 08:13:28;;;;;;;66.65;8.73;;;5.70;99.90;;;;;;5054487;28;20048;-72
2023/02/01 08:15:58;;;;;;;76.32;8.65;;;5.70;99.90;;;;;;5056613;28;20395;-72
2023/02/01 08:18:24;;;;;;;45.25;5.75;;;5.80;99.90;;;;;;5056940;28;20114;-72
2023/02/01 08:20:50;;;;;;;35.83;5.45;;;5.70;99.90;;;;;;5056766;28;20072;-71
2023/02/01 08:23:16;;;;;;;65.28;21.42;;;5.30;99.90;;;;;;5056824;28;20021;-71
2023/02/01 08:25:43;;;;;;;45.08;9.18;;;5.00;99.90;;;;;;5050520;28;20036;-70
2023/02/01 08:28:08;;;;;;;49.10;7.15;;;4.90;99.90;;;;;;5048965;28;20029;-72
2023/02/01 08:30:37;;;;;;;48.78;10.48;;;4.90;99.90;;;;;;5050014;28;20021;-71
2023/02/01 08:33:03;;;;;;;54.17;8.73;;;5.00;99.90;;;;;;5052641;28;20028;-72
2023/02/01 08:35:28;;;;;;;52.13;8.93;;;5.00;99.90;;;;;;5051930;28;20033;-71
2023/02/01 08:37:54;;;;;;;70.82;8.35;;;4.90;99.90;;;;;;5050816;28;20032;-71
2023/02/01 08:40:21;;;;;;;78.03;9.98;;;4.90;99.90;;;;;;5049970;28;20039;-71
2023/02/01 08:42:53;;;;;;;61.47;9.73;;;5.10;99.90;;;;;;5053842;28;20025;-71
2023/02/01 08:45:21;;;;;;;61.63;9.90;;;5.20;99.90;;;;;;5052675;28;20027;-70
2023/02/01 08:47:47;;;;;;;68.45;10.30;;;5.30;99.90;;;;;;5046839;28;20021;-71
2023/02/01 08:50:13;;;;;;;60.75;9.77;;;5.30;99.90;;;;;;5053005;28;20056;-71
2023/02/01 08:52:38;;;;;;;90.75;17.98;;;5.30;99.90;;;;;;5050447;28;20119;-71
2023/02/01 08:55:05;;;;;;;120.40;22.75;;;5.50;99.90;;;;;;5049396;28;20486;-72
2023/02/01 08:57:31;;;;;;;80.15;19.67;;;5.60;99.90;;;;;;5054415;28;20029;-72
2023/02/01 08:59:56;;;;;;;78.45;17.58;;;5.70;99.90;;;;;;5055124;28;20028;-71
2023/02/01 09:02:22;;;;;;;83.75;19.80;;;5.80;99.90;;;;;;5056233;28;20029;-72
2023/02/01 09:04:47;;;;;;;100.85;26.90;;;5.80;99.90;;;;;;5054678;28;20025;-71
2023/02/01 09:07:13;;;;;;;92.18;21.30;;;5.80;99.90;;;;;;5055674;28;20033;-72
2023/02/01 09:09:39;;;;;;;78.30;12.85;;;5.90;99.90;;;;;;5055839;28;20017;-72
2023/02/01 09:12:04;;;;;;;86.60;14.68;;;5.90;99.90;;;;;;5055956;28;20069;-71
2023/02/01 09:14:30;;;;;;;84.10;14.98;;;6.00;99.90;;;;;;5056101;28;20029;-72
2023/02/01 09:16:56;;;;;;;62.10;11.88;;;6.00;99.90;;;;;;5055863;28;20052;-72
2023/02/01 09:19:21;;;;;;;54.22;9.90;;;6.10;99.90;;;;;;5049793;28;20029;-72
2023/02/01 09:21:47;;;;;;;74.57;9.15;;;6.20;99.90;;;;;;5055225;28;20052;-71
2023/02/01 09:24:13;;;;;;;85.53;12.23;;;6.30;99.90;;;;;;5055245;28;20029;-71
2023/02/01 09:26:39;;;;;;;46.90;9.18;;;6.30;99.90;;;;;;5055587;28;20167;-71
2023/02/01 09:29:09;;;;;;;84.75;9.90;;;6.30;99.90;;;;;;5055306;28;20111;-71
2023/02/01 09:31:35;;;;;;;71.65;9.18;;;6.20;99.90;;;;;;5055350;28;20024;-71
2023/02/01 09:34:01;;;;;;;59.15;10.13;;;6.10;99.90;;;;;;5055265;28;20029;-71
2023/02/01 09:36:27;;;;;;;69.28;8.18;;;6.10;99.90;;;;;;5055324;28;20038;-71
2023/02/01 09:38:53;;;;;;;57.88;9.32;;;6.00;99.90;;;;;;5055510;28;20033;-71
2023/02/01 09:41:48;;;;;;;56.92;8.25;;;6.00;99.90;;;;;;5055819;28;20487;-71
2023/02/01 09:44:34;;;;;;;80.88;9.07;;;6.00;99.90;;;;;;5047040;28;20545;-71
2023/02/01 09:47:00;;;;;;;64.68;10.77;;;6.10;99.90;;;;;;5035343;28;20033;-71
2023/02/01 09:49:42;;;;;;;70.28;11.10;;;6.20;99.90;;;;;;5050691;28;20025;-70
2023/02/01 09:52:13;;;;;;;60.17;8.45;;;6.30;99.90;;;;;;5055611;28;20375;-70
2023/02/01 09:54:44;;;;;;;71.15;8.88;;;6.40;99.90;;;;;;5056050;28;20037;-70
2023/02/01 09:57:19;;;;;;;64.43;8.73;;;6.50;99.90;;;;;;5055754;28;20055;-70
2023/02/01 09:59:49;;;;;;;79.03;9.00;;;6.60;99.90;;;;;;5053864;28;20096;-70
2023/02/01 10:02:22;;;;;;;58.70;7.88;;;6.60;99.90;;;;;;5035254;28;20025;-70
2023/02/01 10:04:49;;;;;;;50.17;8.80;;;6.60;99.90;;;;;;5035296;28;20391;-70
2023/02/01 10:07:36;;;;;;;49.13;8.30;;;6.70;99.90;;;;;;5053652;28;20318;-70
2023/02/01 10:10:28;;;;;;;60.55;9.25;;;6.70;99.90;;;;;;5034962;28;20025;-70
2023/02/01 10:13:06;;;;;;;64.57;8.85;;;6.70;99.90;;;;;;5034753;28;20088;-70
2023/02/01 10:15:58;;;;;;;64.97;9.98;;;6.70;99.90;;;;;;5044469;28;20021;-70
2023/02/01 10:19:05;;;;;;;57.80;9.13;;;6.80;99.90;;;;;;5054446;28;20017;-70
2023/02/01 10:21:59;;;;;;;70.63;18.60;;;7.00;99.90;;;;;;5054717;28;20033;-70
2023/02/01 10:24:41;;;;;;;87.22;19.00;;;7.00;99.90;;;;;;5054585;28;20025;-70
2023/02/01 10:27:19;;;;;;;106.72;22.92;;;6.70;99.90;;;;;;5054647;28;20028;-70
2023/02/01 10:29:52;;;;;;;96.97;21.73;;;6.30;99.90;;;;;;5053976;28;20024;-70
2023/02/01 10:32:23;;;;;;;95.18;19.30;;;6.20;99.90;;;;;;5054084;28;20056;-70
2023/02/01 10:34:56;;;;;;;73.13;11.98;;;6.10;99.90;;;;;;5054236;28;20063;-69
2023/02/01 10:37:29;;;;;;;93.63;12.65;;;6.10;99.90;;;;;;5053459;28;20039;-70
2023/02/01 10:40:13;;;;;;;91.83;14.57;;;6.00;99.90;;;;;;5035914;28;20056;-70
2023/02/01 10:42:39;;;;;;;77.43;11.05;;;6.10;99.90;;;;;;5034010;28;20060;-70
2023/02/01 10:45:06;;;;;;;71.63;12.02;;;6.10;99.90;;;;;;5045025;28;20549;-70
2023/02/01 10:47:32;;;;;;;79.35;12.68;;;6.20;99.90;;;;;;5054017;28;20017;-70
2023/02/01 10:50:04;;;;;;;69.82;9.82;;;6.30;99.90;;;;;;5053800;28;20071;-69
2023/02/01 10:52:41;;;;;;;51.17;7.15;;;6.20;99.90;;;;;;5053943;28;20174;-69
2023/02/01 10:55:27;;;;;;;70.43;13.15;;;5.90;99.90;;;;;;5053691;28;20036;-68
2023/02/01 10:58:03;;;;;;;57.97;7.70;;;5.80;99.90;;;;;;5053558;28;20037;-68
2023/02/01 11:00:41;;;;;;;35.20;4.25;;;5.70;99.90;;;;;;5054201;28;20021;-68
2023/02/01 11:03:26;;;;;;;27.23;5.32;;;5.30;99.90;;;;;;5053815;28;20082;-70
2023/02/01 11:05:51;;;;;;;31.85;5.70;;;4.50;99.90;;;;;;5053934;28;20032;-70
2023/02/01 11:08:19;;;;;;;30.42;4.75;;;4.00;99.90;;;;;;5069036;28;20025;-70
2023/02/01 11:10:44;;;;;;;33.10;5.60;;;4.00;99.90;;;;;;5053830;28;20013;-70
2023/02/01 11:13:16;;;;;;;37.97;5.80;;;4.20;99.90;;;;;;5046818;28;20035;-70
2023/02/01 11:15:54;;;;;;;74.18;8.80;;;4.40;99.90;;;;;;5042773;28;20476;-70
2023/02/01 11:18:27;;;;;;;57.47;9.65;;;4.80;99.90;;;;;;5051444;28;20532;-70
2023/02/01 11:20:54;;;;;;;74.63;7.78;;;5.00;99.90;;;;;;5042636;28;20060;-70
2023/02/01 11:23:22;;;;;;;69.07;6.97;;;5.10;99.90;;;;;;5049406;28;20035;-71
2023/02/01 11:25:54;;;;;;;53.60;6.90;;;5.10;99.90;;;;;;5045517;28;20487;-70
2023/02/01 11:28:23;;;;;;;35.85;6.13;;;5.20;99.90;;;;;;5045545;28;20039;-71
2023/02/01 11:30:53;;;;;;;45.95;7.38;;;5.20;99.90;;;;;;5046123;28;20115;-71
2023/02/01 11:33:24;;;;;;;48.05;6.18;;;5.30;99.90;;;;;;5036551;28;20104;-70
2023/02/01 11:35:51;;;;;;;61.67;8.38;;;5.30;99.90;;;;;;5050673;28;20028;-70
2023/02/01 11:38:27;;;;;;;51.90;6.97;;;5.40;99.90;;;;;;5045900;28;20033;-70
2023/02/01 11:40:52;;;;;;;55.90;6.78;;;5.50;99.90;;;;;;5051402;28;20081;-70
2023/02/01 11:43:27;;;;;;;53.72;8.60;;;5.60;99.90;;;;;;5048371;28;20020;-70
2023/02/01 11:45:58;;;;;;;49.92;7.22;;;5.70;99.90;;;;;;5046572;28;20036;-70
2023/02/01 11:48:27;;;;;;;64.07;7.32;;;5.70;99.90;;;;;;5044696;28;20021;-70
2023/02/01 11:50:55;;;;;;;55.25;5.80;;;5.80;99.90;;;;;;5048895;28;20033;-70
2023/02/01 11:53:51;;;;;;;36.67;6.18;;;5.90;99.90;;;;;;5048372;28;20170;-70
2023/02/01 11:56:30;;;;;;;52.55;7.38;;;6.00;99.90;;;;;;5047334;28;20441;-70
2023/02/01 11:59:14;;;;;;;46.38;6.32;;;6.10;99.90;;;;;;5044182;28;20028;-71
2023/02/01 12:02:00;;;;;;;42.17;6.60;;;6.20;99.90;;;;;;5045096;28;20549;-71
2023/02/01 12:04:52;;;;;;;36.80;4.80;;;6.10;99.90;;;;;;5052484;28;20029;-70
2023/02/01 12:07:20;;;;;;;50.50;5.20;;;6.00;99.90;;;;;;5053210;28;20021;-71
2023/02/01 12:10:21;;;;;;;52.72;6.55;;;5.80;99.90;;;;;;5052613;28;20088;-70
2023/02/01 12:12:49;;;;;;;35.05;5.20;;;5.70;99.90;;;;;;5052800;28;20041;-70
2023/02/01 12:15:29;;;;;;;28.10;5.53;;;5.60;99.90;;;;;;5052465;28;20032;-71
2023/02/01 12:18:22;;;;;;;41.38;5.75;;;5.60;99.90;;;;;;5052462;28;20368;-71
2023/02/01 12:21:01;;;;;;;35.50;5.45;;;5.40;99.90;;;;;;5053346;28;20492;-71
2023/02/01 12:23:33;;;;;;;33.65;4.65;;;5.10;99.90;;;;;;5065176;28;20391;-71
2023/02/01 12:26:29;;;;;;;46.97;10.05;;;5.10;99.90;;;;;;5052762;28;20030;-71
2023/02/01 12:29:23;;;;;;;76.93;15.95;;;5.10;99.90;;;;;;5052408;28;20044;-71
2023/02/01 12:32:07;;;;;;;53.38;8.80;;;5.10;99.90;;;;;;5047668;28;20075;-71
2023/02/01 12:34:46;;;;;;;40.78;6.47;;;5.20;99.90;;;;;;5052267;28;20033;-71
2023/02/01 12:37:44;;;;;;;33.40;4.95;;;5.30;99.90;;;;;;5052530;28;20025;-71
2023/02/01 12:40:35;;;;;;;36.15;4.03;;;5.40;99.90;;;;;;5052564;28;20021;-71
2023/02/01 12:43:05;;;;;;;40.10;4.72;;;5.60;99.90;;;;;;5052896;28;20059;-71
2023/02/01 12:45:43;;;;;;;43.53;4.72;;;5.70;99.90;;;;;;5052618;28;20040;-71
2023/02/01 12:48:37;;;;;;;44.92;6.75;;;5.70;99.90;;;;;;5052395;28;20025;-71
2023/02/01 12:51:08;;;;;;;79.53;13.23;;;5.80;99.90;;;;;;5052304;28;20100;-71
2023/02/01 12:53:56;;;;;;;48.50;10.05;;;5.90;99.90;;;;;;5052444;28;20021;-71
2023/02/01 12:56:26;;;;;;;72.75;18.60;;;6.00;99.90;;;;;;5052519;28;20104;-71
2023/02/01 12:58:55;;;;;;;59.20;13.40;;;6.00;99.90;;;;;;5052746;28;20017;-72
2023/02/01 13:01:48;;;;;;;51.22;8.38;;;6.00;99.90;;;;;;5055941;28;20021;-71
2023/02/01 13:04:25;;;;;;;48.13;7.18;;;5.90;99.90;;;;;;5056019;28;20032;-71
2023/02/01 13:07:03;;;;;;;58.88;8.85;;;5.90;99.90;;;;;;5056106;28;20039;-71
2023/02/01 13:10:04;;;;;;;60.70;7.97;;;6.00;99.90;;;;;;5055536;28;20080;-72
2023/02/01 13:12:49;;;;;;;66.88;10.63;;;6.00;99.90;;;;;;5033898;28;20036;-72
2023/02/01 13:15:21;;;;;;;60.47;10.10;;;6.30;99.90;;;;;;5053062;28;20025;-72
2023/02/01 13:17:49;;;;;;;48.05;8.27;;;6.40;99.90;;;;;;5053207;28;20053;-71
2023/02/01 13:20:28;;;;;;;65.75;7.60;;;6.40;99.90;;;;;;5054287;28;20061;-72
2023/02/01 13:23:05;;;;;;;59.72;10.52;;;6.40;99.90;;;;;;5055987;28;20032;-72
2023/02/01 13:25:51;;;;;;;72.05;12.73;;;6.50;99.90;;;;;;5054454;28;20035;-71
2023/02/01 13:28:25;;;;;;;68.43;8.30;;;6.60;99.90;;;;;;5055346;28;20037;-72
2023/02/01 13:31:14;;;;;;;44.28;8.30;;;6.70;99.90;;;;;;5055275;28;20032;-72
2023/02/01 13:33:46;;;;;;;71.25;8.32;;;6.60;99.90;;;;;;5055581;28;20033;-72
2023/02/01 13:36:30;;;;;;;71.90;10.07;;;6.60;99.90;;;;;;5055407;28;20100;-71